Arbon, Idaho
Current Conditions -  °F | °C
As of 7:24 PM on Sunday 25 Jan 2015 (Local Time) from KPIH Reporting Station
Haze Haze  
Wind Chill: 23°   Ceiling: 200
Heat Index: 31°   Visibility: 0.75mi
Dew Point: 31°   Wind: 8mph
Humidity: 100%   Direction: 50°NE
Pressure: 30.45"   Gusts: NA
Location:  42.46°N, 112.57°W
Report Text: KPIH 260224Z 05007KT 3/4SM R21/P6000FT BR OVC002 M01/M01 A3045 RMK AO2 T10061006
Loading
Personal Weather Stations






























Interactive Weather Map New forecast layout! Learn more

10-Day Weather Forecast

Advertisements
Track Severe Weather on mobile